Time;durP1;ratioP1;P1;durP2;ratioP2;P2;SDS_P1;SDS_P2;PMS_P1;PMS_P2;Temp;Humidity;BMP_temperature;BMP_pressure;BME280_temperature;BME280_humidity;BME280_pressure;Samples;Min_cycle;Max_cycle;Signal;HPM_P1;HPM_P2
2021/05/11 05:31:02;;;;;;;5.08;4.12;;;;;;;15.90;52.40;100204.62;1614952;84;26826;-60
2021/05/11 05:33:37;;;;;;;11.05;4.67;;;;;;;16.03;51.84;100219.02;1614019;87;25697;-61
2021/05/11 05:36:06;;;;;;;6.53;4.10;;;;;;;16.16;51.81;100202.03;1615040;87;26324;-61
2021/05/11 05:38:36;;;;;;;7.73;4.27;;;;;;;16.31;51.54;100205.37;1617678;87;25939;-61
2021/05/11 05:41:08;;;;;;;6.03;4.08;;;;;;;16.47;50.73;100216.87;1614276;87;27239;-61
2021/05/11 05:43:31;;;;;;;14.33;4.53;;;;;;;16.62;50.97;100199.71;1615583;87;25791;-61
2021/05/11 05:45:58;;;;;;;5.10;4.10;;;;;;;16.78;50.90;100199.12;1613025;87;25805;-60
2021/05/11 05:48:25;;;;;;;8.10;4.17;;;;;;;17.01;50.21;100213.56;1615298;87;26638;-60
2021/05/11 05:50:58;;;;;;;6.60;4.30;;;;;;;17.22;49.77;100207.01;1613226;87;25884;-61
2021/05/11 05:53:30;;;;;;;8.98;4.47;;;;;;;17.44;49.90;100205.54;1615756;87;27339;-61
2021/05/11 05:55:51;;;;;;;5.42;3.83;;;;;;;17.66;49.44;100205.42;1614497;87;25940;-61
2021/05/11 05:58:18;;;;;;;7.58;4.40;;;;;;;17.84;48.78;100205.22;1616436;87;26774;-61
2021/05/11 06:00:45;;;;;;;6.35;4.03;;;;;;;18.01;48.22;100199.09;1614026;87;25799;-62
2021/05/11 06:05:58;;;;;;;9.63;4.42;;;;;;;18.33;47.55;100201.66;1676565;84;27401;-61
2021/05/11 06:08:27;;;;;;;10.13;4.45;;;;;;;18.49;47.38;100200.97;1675804;84;25827;-61
2021/05/11 06:10:59;;;;;;;11.00;3.83;;;;;;;18.70;47.64;100197.80;1678035;84;25700;-62
2021/05/11 06:13:29;;;;;;;5.80;4.40;;;;;;;18.92;46.77;100203.06;1672539;83;25816;-62
2021/05/11 06:18:37;;;;;;;11.15;4.50;;;;;;;19.13;46.07;100195.73;1670657;84;27392;-60
2021/05/11 06:21:04;;;;;;;13.60;3.77;;;;;;;19.30;45.25;100190.89;1670954;84;25722;-63
2021/05/11 06:23:31;;;;;;;6.97;3.22;;;;;;;19.45;45.73;100200.11;1670382;84;25949;-62
2021/05/11 06:25:57;;;;;;;6.10;3.60;;;;;;;19.66;45.13;100194.88;1670180;84;25726;-62
2021/05/11 06:28:25;;;;;;;6.03;3.98;;;;;;;19.83;44.77;100187.28;1671722;84;25786;-62
2021/05/11 06:30:52;;;;;;;9.53;3.70;;;;;;;20.02;44.66;100186.31;1640145;86;27371;-62
2021/05/11 06:33:18;;;;;;;6.97;4.10;;;;;;;20.17;44.27;100187.26;1655830;85;27182;-62
2021/05/11 06:35:46;;;;;;;7.40;3.92;;;;;;;20.23;43.17;100185.17;1655445;85;26457;-62
2021/05/11 06:38:13;;;;;;;7.12;3.62;;;;;;;20.38;43.07;100177.86;1655876;85;26257;-62
2021/05/11 06:40:41;;;;;;;5.12;3.70;;;;;;;20.55;43.46;100186.63;1655508;85;25890;-61
2021/05/11 06:43:08;;;;;;;7.10;4.20;;;;;;;20.73;41.84;100177.20;1655492;85;27925;-62
2021/05/11 06:48:23;;;;;;;6.65;3.75;;;;;;;21.16;42.29;100182.98;1656842;85;26576;-62
2021/05/11 06:53:51;;;;;;;8.23;3.83;;;;;;;21.52;41.70;100183.20;1654643;85;25774;-61
2021/05/11 06:56:15;;;;;;;9.20;3.72;;;;;;;21.74;41.55;100181.32;1653767;85;28126;-62
2021/05/11 06:58:41;;;;;;;10.68;4.62;;;;;;;22.10;41.77;100170.41;1654193;85;26347;-61
2021/05/11 07:01:08;;;;;;;5.20;3.90;;;;;;;22.50;41.21;100161.64;1653813;85;26123;-62
2021/05/11 07:03:35;;;;;;;6.78;3.60;;;;;;;22.89;40.87;100167.13;1655030;85;26334;-62
2021/05/11 07:06:02;;;;;;;9.33;3.45;;;;;;;23.13;39.59;100177.16;1654436;85;26548;-62
2021/05/11 07:08:41;;;;;;;10.95;3.83;;;;;;;23.24;39.27;100170.23;1654629;85;27249;-62
2021/05/11 07:11:13;;;;;;;10.63;3.42;;;;;;;23.46;38.76;100177.84;1655058;85;27234;-62
2021/05/11 07:13:36;;;;;;;6.47;4.10;;;;;;;23.79;39.13;100182.05;1657564;85;26342;-62
2021/05/11 07:16:03;;;;;;;6.78;3.67;;;;;;;23.91;36.52;100186.37;1657787;86;25618;-61
2021/05/11 07:18:32;;;;;;;6.10;3.40;;;;;;;24.02;38.23;100165.01;1657853;85;25728;-61
2021/05/11 07:21:00;;;;;;;8.03;4.00;;;;;;;24.19;37.21;100166.05;1654134;85;27325;-61
2021/05/11 07:23:28;;;;;;;10.03;3.17;;;;;;;24.48;37.41;100164.46;1654305;86;25692;-62
2021/05/11 07:26:06;;;;;;;10.38;3.85;;;;;;;24.71;36.53;100158.99;1657572;86;25612;-62
2021/05/11 07:31:06;;;;;;;4.62;3.08;;;;;;;25.07;35.70;100151.11;1658029;85;25728;-63
2021/05/11 07:33:41;;;;;;;4.92;3.58;;;;;;;25.12;34.85;100152.05;1655205;85;27971;-61
2021/05/11 07:36:07;;;;;;;7.28;3.72;;;;;;;25.25;35.64;100159.23;1654528;86;25652;-62
2021/05/11 07:38:34;;;;;;;7.28;3.10;;;;;;;25.55;35.59;100161.86;1655396;86;25681;-62
2021/05/11 07:41:01;;;;;;;4.92;3.17;;;;;;;25.77;35.33;100156.05;1655320;86;25781;-63
2021/05/11 07:43:28;;;;;;;6.47;3.92;;;;;;;26.16;35.27;100149.19;1653282;86;25779;-62
2021/05/11 08:15:57;;;;;;;4.45;3.10;;;;;;;27.86;30.83;100131.75;1652774;86;25781;-61
2021/05/11 08:18:35;;;;;;;5.28;3.12;;;;;;;27.79;30.29;100130.53;1653166;86;25680;-62
2021/05/11 08:29:13;;;;;;;4.95;2.90;;;;;;;28.19;31.09;100142.16;1650698;86;26294;-62
2021/05/11 08:31:40;;;;;;;7.58;3.58;;;;;;;28.09;29.70;100122.52;1649880;86;25844;-62
2021/05/11 08:34:07;;;;;;;8.38;3.37;;;;;;;28.16;30.50;100127.10;1634159;87;25808;-63
2021/05/11 08:36:33;;;;;;;6.40;3.20;;;;;;;28.39;30.91;100132.34;1641619;86;25872;-62
2021/05/11 08:39:00;;;;;;;7.60;3.17;;;;;;;28.68;29.96;100124.06;1638892;86;27406;-63
2021/05/11 08:41:27;;;;;;;4.35;3.45;;;;;;;28.84;29.80;100123.23;1635510;87;25727;-63
2021/05/11 08:43:53;;;;;;;9.30;3.02;;;;;;;29.03;29.91;100111.77;1639960;86;25779;-62
2021/05/11 08:46:20;;;;;;;5.42;3.00;;;;;;;29.25;29.09;100113.38;1637594;86;25866;-63
2021/05/11 08:48:48;;;;;;;8.13;3.00;;;;;;;29.36;29.60;100118.65;1644833;86;25703;-63
2021/05/11 08:51:25;;;;;;;6.35;2.72;;;;;;;29.55;29.14;100124.63;1643922;86;27450;-63
2021/05/11 08:54:17;;;;;;;8.80;2.60;;;;;;;29.74;29.55;100127.66;1641154;86;25746;-64
2021/05/11 09:27:17;;;;;;;7.17;3.62;;;;;;;30.00;27.16;100124.27;1631673;87;27540;-63
2021/05/11 10:37:41;;;;;;;6.95;2.70;;;;;;;32.18;24.41;100076.31;1658114;86;25682;-63
2021/05/11 10:48:40;;;;;;;4.83;2.95;;;;;;;32.67;24.52;100055.06;1656300;86;25765;-64
2021/05/11 10:51:24;;;;;;;10.58;2.80;;;;;;;32.95;23.44;100055.81;1653210;86;27821;-62
2021/05/11 10:54:09;;;;;;;4.03;2.17;;;;;;;32.84;21.31;100065.31;1655008;86;25722;-63
2021/05/11 10:56:38;;;;;;;9.10;2.80;;;;;;;32.49;22.84;100054.44;1652676;86;29510;-63
2021/05/11 11:01:58;;;;;;;5.97;2.40;;;;;;;32.70;23.12;100053.50;1653851;86;25705;-63
2021/05/11 11:04:31;;;;;;;7.12;2.55;;;;;;;32.85;24.00;100039.64;1650473;86;25689;-62
2021/05/11 11:07:04;;;;;;;4.35;2.65;;;;;;;33.08;22.70;100034.61;1650585;86;25696;-63
2021/05/11 11:09:38;;;;;;;4.87;2.27;;;;;;;32.98;22.27;100033.08;1644264;86;27418;-62
2021/05/11 11:12:09;;;;;;;7.58;2.30;;;;;;;32.67;22.61;100027.06;1648433;86;25849;-63
2021/05/11 11:14:43;;;;;;;9.18;2.52;;;;;;;32.82;23.06;100041.21;1650292;86;25856;-62
2021/05/11 11:17:13;;;;;;;7.72;3.12;;;;;;;32.79;22.91;100032.34;1657040;86;25892;-63
2021/05/11 11:19:40;;;;;;;9.20;2.27;;;;;;;33.21;22.72;100057.63;1640625;86;25772;-61
2021/05/11 11:24:55;;;;;;;8.33;2.60;;;;;;;32.87;21.73;100034.98;1652389;86;27215;-64
2021/05/11 11:27:30;;;;;;;6.53;2.30;;;;;;;32.85;22.61;100029.08;1647071;86;25757;-62
2021/05/11 11:30:09;;;;;;;9.05;2.33;;;;;;;32.70;21.84;100026.91;1650222;86;26179;-62
2021/05/11 11:32:37;;;;;;;6.85;2.47;;;;;;;32.54;22.18;100037.02;1653694;86;25751;-63
2021/05/11 11:35:07;;;;;;;6.53;2.45;;;;;;;32.26;21.95;100016.02;1628879;87;27319;-63
2021/05/11 11:37:34;;;;;;;7.12;2.02;;;;;;;32.16;21.86;100006.86;1638613;86;25747;-62
2021/05/11 11:40:05;;;;;;;6.83;1.95;;;;;;;32.15;22.15;100020.68;1637953;86;25781;-62
2021/05/11 11:42:41;;;;;;;4.65;2.30;;;;;;;31.99;21.91;100028.72;1651237;86;26053;-62
2021/05/11 11:45:25;;;;;;;6.72;2.20;;;;;;;31.80;22.19;100010.34;1645564;86;25656;-63
2021/05/11 11:48:03;;;;;;;8.68;2.47;;;;;;;31.73;22.06;100017.63;1654780;85;27462;-62
2021/05/11 11:50:37;;;;;;;6.55;2.65;;;;;;;31.51;21.89;100028.89;1645973;86;25730;-63
2021/05/11 11:53:22;;;;;;;8.10;2.65;;;;;;;31.32;22.87;100005.04;1650126;85;25755;-62
2021/05/11 11:58:23;;;;;;;6.50;2.60;;;;;;;31.31;23.08;100016.67;1642138;86;25608;-61
2021/05/11 12:00:50;;;;;;;8.73;2.70;;;;;;;31.16;22.26;100000.48;1652206;85;27434;-61
2021/05/11 12:03:22;;;;;;;9.25;2.15;;;;;;;31.05;22.54;99997.31;1623198;87;25680;-62
2021/05/11 12:05:53;;;;;;;5.22;2.30;;;;;;;30.99;23.02;99999.93;1638375;86;25714;-61
2021/05/11 12:08:29;;;;;;;5.58;2.50;;;;;;;31.12;23.45;99987.88;1636635;86;26204;-62
2021/05/11 12:11:06;;;;;;;8.88;2.40;;;;;;;31.19;22.28;99984.80;1636921;87;25689;-62
2021/05/11 12:13:38;;;;;;;6.78;2.35;;;;;;;31.15;23.38;99997.52;1636462;87;27472;-61
2021/05/11 12:16:28;;;;;;;6.85;2.10;;;;;;;31.26;22.92;99981.72;1633805;87;25726;-61
2021/05/11 12:19:09;;;;;;;5.97;2.00;;;;;;;31.48;23.52;99992.83;1636805;87;25689;-61
2021/05/11 12:21:58;;;;;;;5.53;2.00;;;;;;;31.74;22.45;99989.22;1611266;88;26209;-61
2021/05/11 12:24:36;;;;;;;6.83;2.30;;;;;;;31.51;21.97;99984.95;1635996;87;25575;-61
2021/05/11 12:27:19;;;;;;;4.37;1.85;;;;;;;31.35;22.69;99982.41;1632653;87;27563;-60
2021/05/11 12:30:05;;;;;;;5.85;1.90;;;;;;;31.40;22.19;99985.99;1631595;87;25750;-62
2021/05/11 12:32:33;;;;;;;4.85;2.00;;;;;;;31.39;22.56;99969.06;1634389;83;25779;-64
2021/05/11 12:35:13;;;;;;;4.65;2.05;;;;;;;31.51;22.57;99974.41;1671192;85;25827;-62
2021/05/11 12:37:56;;;;;;;3.85;1.80;;;;;;;31.35;21.87;99978.98;1671164;85;25774;-59
2021/05/11 12:40:29;;;;;;;6.22;1.82;;;;;;;31.18;22.21;99974.27;1670094;85;27320;-59
2021/05/11 12:43:03;;;;;;;9.63;2.17;;;;;;;30.98;21.83;99970.44;1663457;85;25770;-58
2021/05/11 12:45:39;;;;;;;8.43;2.27;;;;;;;30.80;22.24;99973.90;1619400;87;26434;-58
2021/05/11 12:48:05;;;;;;;4.20;2.20;;;;;;;30.75;22.08;99963.33;1663428;86;25736;-58
2021/05/11 12:50:43;;;;;;;5.83;2.30;;;;;;;30.77;22.44;99983.78;1663851;85;25715;-59
2021/05/11 12:53:30;;;;;;;5.63;1.80;;;;;;;30.64;22.43;99970.68;1645878;86;27566;-58
2021/05/11 13:19:44;;;;;;;5.80;1.80;;;;;;;30.39;22.24;99941.53;1601868;89;25759;-58
2021/05/11 13:20:11;;;;;;;6.70;1.80;;;;;;;30.34;22.89;99942.25;1598769;89;27326;-60
2021/05/11 13:25:12;;;;;;;2.42;1.77;;;;;;;30.62;22.36;99934.71;1601810;89;26334;-58
2021/05/11 13:35:24;;;;;;;7.05;1.65;;;;;;;30.16;23.27;99917.78;1551251;91;25853;-62
2021/05/11 13:37:50;;;;;;;6.30;1.80;;;;;;;30.32;23.06;99906.27;1550110;91;25973;-63
2021/05/11 13:40:17;;;;;;;6.45;2.45;;;;;;;30.31;22.76;99909.69;1549407;91;25876;-62
2021/05/11 13:42:43;;;;;;;5.08;1.60;;;;;;;30.25;22.82;99902.35;1556352;90;25836;-63
2021/05/11 13:45:10;;;;;;;6.65;2.35;;;;;;;30.30;22.93;99903.93;1587571;89;27336;-61
2021/05/11 13:47:40;;;;;;;3.80;1.70;;;;;;;30.30;22.32;99903.93;1591224;89;25874;-62
2021/05/11 13:50:07;;;;;;;2.20;1.60;;;;;;;30.12;22.39;99910.17;1599547;88;25858;-63
2021/05/11 13:52:34;;;;;;;6.55;1.95;;;;;;;29.95;22.80;99917.13;1609209;88;26173;-63
2021/05/11 13:55:06;;;;;;;5.25;2.02;;;;;;;29.81;22.51;99901.69;1612367;88;25400;-62
2021/05/11 14:03:04;;;;;;;8.10;2.05;;;;;;;29.61;23.49;99905.52;1612154;88;25854;-64
2021/05/11 14:05:31;;;;;;;4.70;1.67;;;;;;;29.62;23.16;99900.09;1611413;88;25787;-63
2021/05/11 14:07:57;;;;;;;6.70;1.47;;;;;;;29.58;22.81;99897.29;1645573;86;25915;-62
2021/05/11 14:10:23;;;;;;;7.17;1.60;;;;;;;29.47;23.35;99908.77;1658366;86;27352;-62
2021/05/11 14:12:50;;;;;;;7.22;1.85;;;;;;;29.45;23.44;99904.27;1662111;86;25750;-62
2021/05/11 14:15:16;;;;;;;4.60;1.80;;;;;;;29.43;23.45;99906.73;1661770;86;25644;-64
2021/05/11 14:17:42;;;;;;;3.40;2.05;;;;;;;29.48;23.75;99897.03;1621101;87;26312;-65
2021/05/11 14:20:11;;;;;;;10.55;2.08;;;;;;;29.45;23.07;99902.10;1622038;87;25589;-63
2021/05/11 14:22:38;;;;;;;7.37;2.27;;;;;;;29.30;23.07;99922.05;1660638;86;27422;-64
2021/05/11 14:25:06;;;;;;;8.85;2.45;;;;;;;29.18;23.53;99908.30;1658987;86;25749;-63
2021/05/11 14:27:34;;;;;;;2.92;1.65;;;;;;;29.04;23.69;99910.13;1623192;87;34914;-63
2021/05/11 14:30:00;;;;;;;4.65;2.15;;;;;;;28.90;23.68;99898.83;1624384;87;27739;-63
2021/05/11 14:32:26;;;;;;;4.40;1.80;;;;;;;28.85;24.44;99896.59;1661959;85;25762;-64
2021/05/11 14:34:53;;;;;;;3.60;1.70;;;;;;;28.94;24.62;99902.27;1663919;85;27500;-62
2021/05/11 14:37:22;;;;;;;5.50;2.05;;;;;;;28.97;23.85;99914.53;1664368;84;25813;-64
2021/05/11 14:39:48;;;;;;;4.33;1.87;;;;;;;28.87;24.45;99902.48;1665585;85;26215;-63
2021/05/11 14:42:18;;;;;;;4.87;1.82;;;;;;;28.87;24.52;99912.23;1662169;84;25738;-62
2021/05/11 14:44:44;;;;;;;;;;;;;;;28.82;24.62;99896.09;1658601;85;25772;-61
2021/05/11 14:47:10;;;;;;;4.37;1.57;;;;;;;28.73;23.65;99884.23;1665488;84;27305;-61
2021/05/11 14:49:36;;;;;;;6.90;2.35;;;;;;;28.64;24.59;99887.67;1660780;86;25694;-62
2021/05/11 14:52:07;;;;;;;5.45;1.62;;;;;;;28.63;24.47;99888.11;1662017;86;25712;-61
2021/05/11 14:54:32;;;;;;;;;;;;;;;28.54;24.51;99885.16;1664700;85;26591;-60
2021/05/11 14:56:58;;;;;;;5.60;2.08;;;;;;;28.47;24.51;99885.55;1662597;86;25706;-61
2021/05/11 14:59:26;;;;;;;5.80;1.60;;;;;;;28.40;24.46;99880.80;1662491;85;27396;-61
2021/05/11 15:01:52;;;;;;;12.47;1.95;;;;;;;28.26;24.76;99879.21;1658834;86;25642;-60
2021/05/11 15:04:19;;;;;;;3.60;2.00;;;;;;;28.19;24.89;99884.36;1658131;86;25668;-61
2021/05/11 15:06:45;;;;;;;2.30;1.60;;;;;;;28.13;25.03;99882.73;1657775;86;26333;-63
2021/05/11 15:09:12;;;;;;;4.17;1.90;;;;;;;28.07;24.80;99880.94;1655577;85;25784;-63
2021/05/11 15:11:39;;;;;;;4.55;1.80;;;;;;;27.95;24.59;99891.55;1644694;86;27417;-60
2021/05/11 15:14:05;;;;;;;3.98;1.70;;;;;;;27.87;24.90;99874.09;1646117;86;25768;-62
2021/05/11 15:16:38;;;;;;;7.58;1.60;;;;;;;27.79;25.39;99896.33;1641842;86;25765;-63
2021/05/11 15:19:10;;;;;;;4.62;1.65;;;;;;;27.69;25.13;99882.30;1639429;86;25790;-63
2021/05/11 15:21:39;;;;;;;4.17;1.50;;;;;;;27.61;25.44;99868.42;1650239;86;25833;-63
2021/05/11 15:24:09;;;;;;;9.03;1.77;;;;;;;27.60;25.68;99866.88;1655675;86;27434;-62
2021/05/11 15:26:36;;;;;;;8.00;1.75;;;;;;;27.53;26.18;99870.61;1643426;86;26401;-63
2021/05/11 15:29:05;;;;;;;3.65;1.75;;;;;;;27.47;26.20;99879.28;1636014;85;25929;-62
2021/05/11 15:31:32;;;;;;;5.35;1.85;;;;;;;27.39;26.10;99866.17;1633915;85;26599;-61
2021/05/11 15:33:58;;;;;;;3.85;1.92;;;;;;;27.34;26.36;99870.09;1634237;86;25784;-62
2021/05/11 15:36:25;;;;;;;3.77;1.72;;;;;;;27.27;26.38;99871.02;1626730;87;27576;-62
2021/05/11 15:38:52;;;;;;;3.50;1.70;;;;;;;27.20;26.61;99865.02;1631879;87;27225;-66
2021/05/11 15:41:19;;;;;;;4.50;1.47;;;;;;;27.11;26.55;99861.31;1627982;87;25767;-67
2021/05/11 15:43:46;;;;;;;3.95;1.80;;;;;;;27.05;26.91;99859.64;1615402;86;25854;-67
2021/05/11 15:46:13;;;;;;;3.85;1.90;;;;;;;27.04;27.05;99860.88;1627303;87;25703;-67
2021/05/11 15:48:39;;;;;;;3.87;1.87;;;;;;;26.96;27.17;99861.63;1625422;87;27442;-67
2021/05/11 15:51:06;;;;;;;3.30;1.40;;;;;;;26.86;27.37;99860.50;1626110;87;26333;-69
2021/05/11 15:53:33;;;;;;;6.30;2.27;;;;;;;26.76;27.76;99853.97;1628464;87;25922;-67
2021/05/11 15:55:59;;;;;;;3.22;1.72;;;;;;;26.72;28.00;99852.67;1637184;86;25785;-68
2021/05/11 15:58:26;;;;;;;3.50;1.60;;;;;;;26.68;28.27;99858.11;1630918;87;25799;-67
2021/05/11 16:00:53;;;;;;;5.28;1.55;;;;;;;26.59;28.36;99858.67;1629433;87;27309;-67
2021/05/11 16:03:20;;;;;;;4.08;2.10;;;;;;;26.52;28.48;99849.13;1631370;87;25771;-67
2021/05/11 16:05:48;;;;;;;4.37;2.10;;;;;;;26.43;28.58;99846.94;1629838;87;25654;-68
2021/05/11 16:08:16;;;;;;;6.28;2.00;;;;;;;26.35;28.63;99840.75;1630915;86;25758;-73
2021/05/11 16:10:45;;;;;;;4.60;2.22;;;;;;;26.30;28.81;99843.25;1630859;87;26156;-71
2021/05/11 16:13:12;;;;;;;4.60;1.70;;;;;;;26.23;28.94;99842.18;1628398;86;27340;-79
2021/05/11 16:15:40;;;;;;;5.33;1.98;;;;;;;26.17;28.85;99837.56;1654008;86;25750;-80
2021/05/11 16:18:06;;;;;;;3.70;1.80;;;;;;;26.07;28.88;99841.52;1632029;87;25707;-75
2021/05/11 16:20:33;;;;;;;8.88;1.92;;;;;;;26.01;29.15;99861.83;1653524;86;25785;-71
2021/05/11 16:23:00;;;;;;;6.05;2.17;;;;;;;25.91;28.96;99840.02;1641642;86;25840;-73
2021/05/11 16:25:27;;;;;;;4.47;1.60;;;;;;;25.82;29.14;99852.27;1642225;86;27451;-76
2021/05/11 16:27:54;;;;;;;3.72;2.05;;;;;;;25.76;29.36;99845.06;1642484;86;25818;-75
2021/05/11 16:30:21;;;;;;;4.20;2.20;;;;;;;25.75;29.50;99846.87;1652507;86;25782;-73
2021/05/11 16:32:49;;;;;;;5.83;1.67;;;;;;;25.70;29.20;99852.28;1638975;86;25842;-77
2021/05/11 16:35:16;;;;;;;9.45;2.05;;;;;;;25.64;29.35;99851.20;1639573;86;25665;-75
2021/05/11 16:37:43;;;;;;;6.30;2.20;;;;;;;25.56;29.42;99857.48;1637151;87;29552;-73
2021/05/11 16:40:12;;;;;;;5.37;2.10;;;;;;;25.48;29.50;99855.42;1641853;86;25776;-74
2021/05/11 16:42:39;;;;;;;9.03;1.90;;;;;;;25.40;29.55;99847.66;1645392;86;25751;-79
2021/05/11 16:45:11;;;;;;;6.67;2.25;;;;;;;25.31;29.42;99856.50;1632839;87;25903;-77
2021/05/11 16:47:53;;;;;;;4.97;1.98;;;;;;;25.23;29.39;99853.64;1626407;87;25755;-75
2021/05/11 16:50:09;;;;;;;6.62;2.45;;;;;;;25.13;29.51;99851.22;1625177;86;27236;-73
2021/05/11 16:52:36;;;;;;;8.80;2.40;;;;;;;25.06;29.62;99847.95;1628968;86;25766;-75
2021/05/11 16:55:04;;;;;;;6.87;2.30;;;;;;;24.99;29.59;99846.69;1624669;87;26313;-74
2021/05/11 16:57:31;;;;;;;4.65;2.30;;;;;;;24.91;29.57;99846.03;1625872;86;25954;-73
2021/05/11 16:59:58;;;;;;;3.87;2.25;;;;;;;24.85;29.80;99840.00;1626301;87;26488;-72
2021/05/11 17:02:24;;;;;;;8.50;2.33;;;;;;;24.79;29.92;99855.67;1628391;86;29653;-73
2021/05/11 17:04:51;;;;;;;3.33;2.45;;;;;;;24.71;29.86;99845.14;1604396;87;26494;-74
2021/05/11 17:07:17;;;;;;;5.75;2.05;;;;;;;24.64;29.92;99840.48;1621221;87;25847;-73
2021/05/11 17:09:44;;;;;;;7.10;1.90;;;;;;;24.59;29.92;99838.96;1623261;87;26327;-71
2021/05/11 17:12:10;;;;;;;4.92;2.10;;;;;;;24.52;29.97;99843.77;1604865;86;25850;-71
2021/05/11 17:14:38;;;;;;;6.83;1.85;;;;;;;24.47;29.96;99842.84;1647993;85;27326;-73
2021/05/11 17:17:04;;;;;;;5.70;2.10;;;;;;;24.42;29.90;99837.20;1654607;85;25811;-82
2021/05/11 17:19:32;;;;;;;7.12;1.92;;;;;;;24.34;29.81;99842.02;1655852;85;26407;-83
2021/05/11 17:21:59;;;;;;;4.20;2.30;;;;;;;24.29;29.98;99833.41;1655800;85;25726;-75
2021/05/11 17:24:26;;;;;;;5.08;2.25;;;;;;;24.20;29.97;99816.73;1651439;85;25892;-70
2021/05/11 17:26:54;;;;;;;7.15;2.33;;;;;;;24.15;30.24;99828.84;1651874;85;28297;-70
2021/05/11 17:29:21;;;;;;;5.15;2.00;;;;;;;24.10;30.25;99829.30;1652030;85;25852;-66
2021/05/11 17:31:48;;;;;;;6.78;2.20;;;;;;;24.04;30.36;99826.19;1651902;85;25790;-73
2021/05/11 17:34:16;;;;;;;4.75;2.42;;;;;;;23.95;30.41;99828.06;1653414;85;26524;-72
2021/05/11 17:36:45;;;;;;;4.62;2.22;;;;;;;23.85;30.61;99828.39;1668083;85;25695;-74
2021/05/11 17:39:12;;;;;;;6.60;2.33;;;;;;;23.77;30.81;99823.30;1682908;84;27412;-73
2021/05/11 17:41:38;;;;;;;4.67;2.20;;;;;;;23.69;31.04;99824.76;1679756;84;25691;-73
2021/05/11 17:44:06;;;;;;;5.47;2.47;;;;;;;23.62;31.26;99820.70;1683960;84;25817;-74
2021/05/11 17:46:32;;;;;;;9.33;2.65;;;;;;;23.53;31.47;99825.12;1674320;84;26183;-73
2021/05/11 17:48:59;;;;;;;3.98;2.65;;;;;;;23.45;31.88;99819.67;1676127;84;25805;-73
2021/05/11 17:51:26;;;;;;;6.97;2.80;;;;;;;23.35;31.94;99818.40;1677436;84;27318;-72
2021/05/11 17:53:53;;;;;;;6.62;2.72;;;;;;;23.28;32.12;99827.52;1671546;84;26130;-73
2021/05/11 17:56:22;;;;;;;7.65;2.58;;;;;;;23.20;32.27;99836.44;1685799;84;25715;-71
2021/05/11 17:58:49;;;;;;;6.65;2.25;;;;;;;23.13;32.57;99826.23;1687470;84;26280;-74
2021/05/11 18:01:15;;;;;;;4.17;3.25;;;;;;;23.04;32.72;99827.88;1680408;84;25914;-74
2021/05/11 18:03:42;;;;;;;4.15;3.40;;;;;;;22.93;32.84;99828.73;1677705;84;27368;-74
2021/05/11 18:06:11;;;;;;;5.78;3.00;;;;;;;22.86;33.01;99829.37;1684920;84;25824;-74
2021/05/11 18:08:40;;;;;;;8.03;4.08;;;;;;;22.78;33.14;99839.64;1682122;84;25737;-73
2021/05/11 18:11:07;;;;;;;6.92;3.15;;;;;;;22.69;33.46;99829.06;1679283;84;25815;-76
2021/05/11 18:13:33;;;;;;;5.17;3.22;;;;;;;22.62;33.43;99833.25;1676992;84;26462;-74
2021/05/11 18:16:02;;;;;;;9.10;3.30;;;;;;;22.53;33.65;99835.06;1659624;84;27428;-70
2021/05/11 18:18:29;;;;;;;8.83;3.52;;;;;;;22.44;33.79;99837.48;1683245;84;25856;-76
2021/05/11 18:20:56;;;;;;;8.05;3.67;;;;;;;22.41;34.28;99835.53;1679171;84;25971;-76
2021/05/11 18:23:22;;;;;;;5.37;3.50;;;;;;;22.33;34.57;99841.65;1684735;84;26008;-77
2021/05/11 18:25:48;;;;;;;4.00;3.15;;;;;;;22.26;34.45;99847.16;1683567;84;25725;-75
2021/05/11 18:28:15;;;;;;;8.93;3.77;;;;;;;22.18;34.34;99839.50;1678511;84;27479;-87
2021/05/11 18:30:41;;;;;;;6.75;3.25;;;;;;;22.13;34.45;99848.78;1689617;84;25928;-76
2021/05/11 18:33:08;;;;;;;7.85;3.60;;;;;;;22.10;34.43;99841.30;1693382;84;25736;-69
2021/05/11 18:35:35;;;;;;;7.25;3.30;;;;;;;22.06;34.35;99847.43;1683045;84;25847;-67
2021/05/11 18:38:04;;;;;;;8.98;3.77;;;;;;;22.02;34.35;99846.06;1653393;86;25800;-70
2021/05/11 18:40:32;;;;;;;4.65;3.33;;;;;;;21.99;34.36;99853.14;1657415;84;27395;-72
2021/05/11 18:43:00;;;;;;;5.80;3.20;;;;;;;21.96;34.49;99855.91;1654786;85;25734;-72
2021/05/11 18:45:28;;;;;;;3.83;3.37;;;;;;;21.90;34.48;99854.16;1656298;84;26152;-69
2021/05/11 18:47:56;;;;;;;8.83;3.37;;;;;;;21.87;34.47;99860.45;1656256;85;26134;-71
2021/05/11 18:50:30;;;;;;;4.17;3.35;;;;;;;21.82;34.57;99853.97;1640013;84;25740;-67
2021/05/11 18:52:58;;;;;;;3.65;3.15;;;;;;;21.76;34.44;99865.98;1659319;84;27391;-69
2021/05/11 18:55:26;;;;;;;7.45;3.20;;;;;;;21.68;34.48;99865.80;1655897;85;25761;-68
2021/05/11 18:57:55;;;;;;;6.17;3.33;;;;;;;21.61;34.51;99865.20;1635298;85;25826;-68
2021/05/11 19:00:23;;;;;;;6.97;4.37;;;;;;;21.54;34.63;99858.91;1651937;85;25809;-67
2021/05/11 19:02:52;;;;;;;11.70;3.60;;;;;;;21.46;34.55;99860.86;1656309;85;25818;-67
2021/05/11 19:05:20;;;;;;;9.60;3.58;;;;;;;21.42;34.64;99864.22;1660717;84;27346;-67
2021/05/11 19:07:46;;;;;;;5.08;2.90;;;;;;;21.36;34.56;99870.68;1654024;84;26057;-68
2021/05/11 19:10:19;;;;;;;5.37;3.33;;;;;;;21.31;34.65;99865.56;1659088;85;25788;-69
2021/05/11 19:12:45;;;;;;;9.90;3.17;;;;;;;21.25;34.62;99864.41;1660794;84;25978;-70
2021/05/11 19:15:16;;;;;;;6.80;3.33;;;;;;;21.19;34.68;99859.09;1656045;84;25526;-70
2021/05/11 19:17:44;;;;;;;5.80;3.33;;;;;;;21.12;34.65;99865.36;1654803;84;27874;-69
2021/05/11 19:20:13;;;;;;;7.75;3.00;;;;;;;21.08;34.64;99868.11;1658594;84;26509;-69
2021/05/11 19:22:40;;;;;;;;;;;;;;;21.02;34.68;99869.66;1656816;85;25770;-70
2021/05/11 19:25:08;;;;;;;7.05;3.22;;;;;;;20.98;34.72;99870.25;1659843;84;26372;-70
2021/05/11 19:27:39;;;;;;;7.43;3.53;;;;;;;20.92;34.73;99866.91;1656628;85;25796;-69
2021/05/11 19:30:05;;;;;;;8.73;3.50;;;;;;;20.86;34.75;99870.63;1653710;84;27341;-69
2021/05/11 19:32:31;;;;;;;8.65;4.47;;;;;;;20.81;34.71;99866.89;1649392;84;25859;-69
2021/05/11 19:34:58;;;;;;;4.97;3.12;;;;;;;20.77;34.75;99874.31;1649350;84;25898;-68
2021/05/11 19:37:25;;;;;;;4.42;3.08;;;;;;;20.71;34.63;99871.95;1642808;86;26499;-69
2021/05/11 19:39:51;;;;;;;7.45;2.75;;;;;;;20.68;34.64;99871.34;1638582;86;26016;-68
2021/05/11 19:42:18;;;;;;;3.47;2.60;;;;;;;20.63;34.58;99869.56;1631848;86;27925;-69
2021/05/11 19:44:46;;;;;;;6.15;3.00;;;;;;;20.58;34.59;99861.67;1631138;87;25991;-69
2021/05/11 19:47:14;;;;;;;8.78;3.00;;;;;;;20.56;34.55;99876.39;1631007;87;26411;-69
2021/05/11 19:49:40;;;;;;;4.53;2.60;;;;;;;20.52;34.53;99869.52;1623029;87;26341;-69
2021/05/11 19:52:06;;;;;;;6.40;2.75;;;;;;;20.47;34.48;99873.41;1610323;87;25639;-70
2021/05/11 19:54:33;;;;;;;10.13;3.35;;;;;;;20.44;34.39;99870.05;1630842;87;27490;-70
2021/05/11 19:56:59;;;;;;;3.85;2.80;;;;;;;20.41;34.38;99863.95;1626715;86;25754;-63
2021/05/11 19:59:26;;;;;;;6.97;3.67;;;;;;;20.38;34.41;99873.55;1644974;85;25729;-62
2021/05/11 20:01:54;;;;;;;4.75;2.87;;;;;;;20.33;34.38;99882.38;1645216;86;25779;-63
2021/05/11 20:04:20;;;;;;;6.40;2.98;;;;;;;20.31;34.33;99871.56;1613328;88;25818;-63
2021/05/11 20:06:47;;;;;;;6.45;3.30;;;;;;;20.26;34.34;99880.98;1635331;87;27390;-63
2021/05/11 20:09:13;;;;;;;4.08;3.22;;;;;;;20.22;34.36;99871.14;1633136;87;26395;-62
2021/05/11 20:11:46;;;;;;;4.90;3.20;;;;;;;20.17;34.30;99871.50;1635881;86;25824;-63
2021/05/11 20:14:08;;;;;;;5.87;3.10;;;;;;;20.12;34.43;99867.94;1635105;86;26300;-61
2021/05/11 20:16:34;;;;;;;8.23;2.90;;;;;;;20.06;34.54;99866.74;1636532;86;26118;-62
2021/05/11 20:19:02;;;;;;;13.48;3.58;;;;;;;20.00;34.54;99868.27;1632068;87;28472;-62
2021/05/11 20:21:29;;;;;;;5.95;3.45;;;;;;;19.95;34.70;99865.88;1633127;87;25678;-62
2021/05/11 20:23:55;;;;;;;7.85;3.62;;;;;;;19.89;34.71;99866.84;1633797;87;25794;-62
2021/05/11 20:26:23;;;;;;;8.48;3.37;;;;;;;19.83;34.79;99854.63;1633168;87;26367;-62
2021/05/11 20:28:55;;;;;;;7.40;3.98;;;;;;;19.76;34.96;99856.75;1633728;87;25745;-63
2021/05/11 20:31:19;;;;;;;5.17;3.45;;;;;;;19.69;34.96;99853.15;1633701;87;27399;-62
2021/05/11 20:33:45;;;;;;;9.45;4.00;;;;;;;19.65;34.89;99865.47;1634740;87;25777;-62